sensor_id;sensor_type;location;lat;lon;timestamp;P1;durP1;ratioP1;P2;durP2;ratioP2
24635;SDS011;12772;49.794;10.024;2023-08-06T00:02:05;2.08;;;1.90;;
24635;SDS011;12772;49.794;10.024;2023-08-06T00:06:06;4.13;;;2.13;;
24635;SDS011;12772;49.794;10.024;2023-08-06T00:10:09;1.83;;;1.73;;
24635;SDS011;12772;49.794;10.024;2023-08-06T00:14:11;2.50;;;1.75;;
24635;SDS011;12772;49.794;10.024;2023-08-06T00:18:13;2.17;;;1.95;;
24635;SDS011;12772;49.794;10.024;2023-08-06T00:22:15;2.20;;;2.00;;
24635;SDS011;12772;49.794;10.024;2023-08-06T00:26:18;1.95;;;1.85;;
24635;SDS011;12772;49.794;10.024;2023-08-06T00:30:20;2.47;;;1.92;;
24635;SDS011;12772;49.794;10.024;2023-08-06T00:34:22;1.50;;;1.40;;
24635;SDS011;12772;49.794;10.024;2023-08-06T00:38:24;1.70;;;1.30;;
24635;SDS011;12772;49.794;10.024;2023-08-06T00:42:26;1.63;;;1.52;;
24635;SDS011;12772;49.794;10.024;2023-08-06T00:46:28;1.95;;;1.52;;
24635;SDS011;12772;49.794;10.024;2023-08-06T00:50:31;1.30;;;1.30;;
24635;SDS011;12772;49.794;10.024;2023-08-06T00:54:33;1.75;;;1.65;;
24635;SDS011;12772;49.794;10.024;2023-08-06T00:58:36;3.20;;;1.60;;
24635;SDS011;12772;49.794;10.024;2023-08-06T01:02:38;1.73;;;1.63;;
24635;SDS011;12772;49.794;10.024;2023-08-06T01:11:27;1.90;;;1.75;;
24635;SDS011;12772;49.794;10.024;2023-08-06T01:15:33;1.48;;;1.38;;
24635;SDS011;12772;49.794;10.024;2023-08-06T01:19:40;2.33;;;1.70;;
24635;SDS011;12772;49.794;10.024;2023-08-06T01:23:43;3.63;;;1.80;;
24635;SDS011;12772;49.794;10.024;2023-08-06T01:27:48;1.70;;;1.60;;
24635;SDS011;12772;49.794;10.024;2023-08-06T01:31:51;2.25;;;1.75;;
24635;SDS011;12772;49.794;10.024;2023-08-06T01:35:55;1.55;;;1.55;;
24635;SDS011;12772;49.794;10.024;2023-08-06T01:39:58;1.60;;;1.50;;
24635;SDS011;12772;49.794;10.024;2023-08-06T01:44:00;1.70;;;1.60;;
24635;SDS011;12772;49.794;10.024;2023-08-06T01:48:02;1.92;;;1.65;;
24635;SDS011;12772;49.794;10.024;2023-08-06T01:52:04;3.00;;;1.50;;
24635;SDS011;12772;49.794;10.024;2023-08-06T01:56:07;1.83;;;1.50;;
24635;SDS011;12772;49.794;10.024;2023-08-06T02:00:09;1.30;;;1.30;;
24635;SDS011;12772;49.794;10.024;2023-08-06T02:04:11;1.90;;;1.80;;
24635;SDS011;12772;49.794;10.024;2023-08-06T02:08:13;3.60;;;1.77;;
24635;SDS011;12772;49.794;10.024;2023-08-06T02:12:15;1.60;;;1.50;;
24635;SDS011;12772;49.794;10.024;2023-08-06T02:16:17;1.60;;;1.50;;
24635;SDS011;12772;49.794;10.024;2023-08-06T02:20:19;1.70;;;1.42;;
24635;SDS011;12772;49.794;10.024;2023-08-06T02:24:21;1.55;;;1.45;;
24635;SDS011;12772;49.794;10.024;2023-08-06T02:28:23;1.73;;;1.20;;
24635;SDS011;12772;49.794;10.024;2023-08-06T02:32:25;1.50;;;1.40;;
24635;SDS011;12772;49.794;10.024;2023-08-06T02:36:30;1.67;;;1.58;;
24635;SDS011;12772;49.794;10.024;2023-08-06T02:40:32;2.13;;;1.50;;
24635;SDS011;12772;49.794;10.024;2023-08-06T02:44:34;1.58;;;1.48;;
24635;SDS011;12772;49.794;10.024;2023-08-06T02:48:37;2.00;;;1.90;;
24635;SDS011;12772;49.794;10.024;2023-08-06T02:52:39;2.20;;;1.48;;
24635;SDS011;12772;49.794;10.024;2023-08-06T02:56:43;1.92;;;1.70;;
24635;SDS011;12772;49.794;10.024;2023-08-06T03:00:46;2.20;;;1.98;;
24635;SDS011;12772;49.794;10.024;2023-08-06T03:04:48;1.30;;;1.30;;
24635;SDS011;12772;49.794;10.024;2023-08-06T03:08:50;1.73;;;1.60;;
24635;SDS011;12772;49.794;10.024;2023-08-06T03:12:52;2.30;;;2.10;;
24635;SDS011;12772;49.794;10.024;2023-08-06T03:16:54;1.80;;;1.70;;
24635;SDS011;12772;49.794;10.024;2023-08-06T03:20:56;1.85;;;1.70;;
24635;SDS011;12772;49.794;10.024;2023-08-06T03:24:58;1.65;;;1.55;;
24635;SDS011;12772;49.794;10.024;2023-08-06T03:29:00;1.80;;;1.70;;
24635;SDS011;12772;49.794;10.024;2023-08-06T03:33:02;2.78;;;1.60;;
24635;SDS011;12772;49.794;10.024;2023-08-06T03:37:05;1.65;;;1.55;;
24635;SDS011;12772;49.794;10.024;2023-08-06T03:41:07;2.03;;;1.92;;
24635;SDS011;12772;49.794;10.024;2023-08-06T03:45:09;1.40;;;1.30;;
24635;SDS011;12772;49.794;10.024;2023-08-06T03:49:11;2.90;;;1.80;;
24635;SDS011;12772;49.794;10.024;2023-08-06T03:53:13;1.70;;;1.60;;
24635;SDS011;12772;49.794;10.024;2023-08-06T03:57:15;3.28;;;1.80;;
24635;SDS011;12772;49.794;10.024;2023-08-06T04:01:17;1.80;;;1.70;;
24635;SDS011;12772;49.794;10.024;2023-08-06T04:05:19;1.73;;;1.63;;
24635;SDS011;12772;49.794;10.024;2023-08-06T04:09:21;2.75;;;1.80;;
24635;SDS011;12772;49.794;10.024;2023-08-06T04:13:23;1.77;;;1.67;;
24635;SDS011;12772;49.794;10.024;2023-08-06T04:17:25;1.60;;;1.50;;
24635;SDS011;12772;49.794;10.024;2023-08-06T04:21:27;2.45;;;1.92;;
24635;SDS011;12772;49.794;10.024;2023-08-06T04:25:29;1.98;;;1.83;;
24635;SDS011;12772;49.794;10.024;2023-08-06T04:29:31;2.22;;;2.03;;
24635;SDS011;12772;49.794;10.024;2023-08-06T04:33:33;1.92;;;1.83;;
24635;SDS011;12772;49.794;10.024;2023-08-06T04:37:35;3.10;;;1.83;;
24635;SDS011;12772;49.794;10.024;2023-08-06T04:41:37;2.90;;;2.10;;
24635;SDS011;12772;49.794;10.024;2023-08-06T04:45:45;3.15;;;1.77;;
24635;SDS011;12772;49.794;10.024;2023-08-06T04:49:48;1.75;;;1.65;;
24635;SDS011;12772;49.794;10.024;2023-08-06T04:53:50;1.75;;;1.65;;
24635;SDS011;12772;49.794;10.024;2023-08-06T04:57:52;2.03;;;1.92;;
24635;SDS011;12772;49.794;10.024;2023-08-06T05:01:54;2.00;;;1.90;;
24635;SDS011;12772;49.794;10.024;2023-08-06T05:05:56;2.25;;;2.05;;
24635;SDS011;12772;49.794;10.024;2023-08-06T05:09:58;2.60;;;2.00;;
24635;SDS011;12772;49.794;10.024;2023-08-06T05:14:00;3.67;;;1.95;;
24635;SDS011;12772;49.794;10.024;2023-08-06T05:18:02;2.10;;;2.00;;
24635;SDS011;12772;49.794;10.024;2023-08-06T05:22:04;2.25;;;2.10;;
24635;SDS011;12772;49.794;10.024;2023-08-06T05:26:06;3.55;;;1.92;;
24635;SDS011;12772;49.794;10.024;2023-08-06T05:30:08;3.38;;;2.17;;
24635;SDS011;12772;49.794;10.024;2023-08-06T05:34:11;3.15;;;2.05;;
24635;SDS011;12772;49.794;10.024;2023-08-06T05:38:13;1.70;;;1.48;;
24635;SDS011;12772;49.794;10.024;2023-08-06T05:42:15;1.85;;;1.75;;
24635;SDS011;12772;49.794;10.024;2023-08-06T05:46:17;1.90;;;1.70;;
24635;SDS011;12772;49.794;10.024;2023-08-06T05:50:19;1.95;;;1.77;;
24635;SDS011;12772;49.794;10.024;2023-08-06T05:54:21;1.90;;;1.80;;
24635;SDS011;12772;49.794;10.024;2023-08-06T05:58:23;2.08;;;1.98;;
24635;SDS011;12772;49.794;10.024;2023-08-06T06:02:29;2.15;;;1.95;;
24635;SDS011;12772;49.794;10.024;2023-08-06T06:06:31;1.98;;;1.83;;
24635;SDS011;12772;49.794;10.024;2023-08-06T06:10:33;1.92;;;1.73;;
24635;SDS011;12772;49.794;10.024;2023-08-06T06:14:35;2.22;;;1.38;;
24635;SDS011;12772;49.794;10.024;2023-08-06T06:18:37;3.83;;;2.10;;
24635;SDS011;12772;49.794;10.024;2023-08-06T06:22:39;1.90;;;1.70;;
24635;SDS011;12772;49.794;10.024;2023-08-06T06:26:41;2.92;;;1.90;;
24635;SDS011;12772;49.794;10.024;2023-08-06T06:30:44;3.90;;;1.80;;
24635;SDS011;12772;49.794;10.024;2023-08-06T06:34:46;4.03;;;1.67;;
24635;SDS011;12772;49.794;10.024;2023-08-06T06:38:48;3.05;;;2.05;;
24635;SDS011;12772;49.794;10.024;2023-08-06T06:42:50;2.05;;;1.88;;
24635;SDS011;12772;49.794;10.024;2023-08-06T06:46:52;2.20;;;1.60;;
24635;SDS011;12772;49.794;10.024;2023-08-06T06:50:54;4.68;;;2.28;;
24635;SDS011;12772;49.794;10.024;2023-08-06T06:54:57;1.75;;;1.48;;
24635;SDS011;12772;49.794;10.024;2023-08-06T06:58:59;1.70;;;1.52;;
24635;SDS011;12772;49.794;10.024;2023-08-06T07:03:01;1.88;;;1.67;;
24635;SDS011;12772;49.794;10.024;2023-08-06T07:07:03;1.42;;;1.20;;
24635;SDS011;12772;49.794;10.024;2023-08-06T07:11:06;2.08;;;1.88;;
24635;SDS011;12772;49.794;10.024;2023-08-06T07:15:08;1.50;;;1.15;;
24635;SDS011;12772;49.794;10.024;2023-08-06T07:19:10;2.38;;;1.00;;
24635;SDS011;12772;49.794;10.024;2023-08-06T07:23:12;1.92;;;1.30;;
24635;SDS011;12772;49.794;10.024;2023-08-06T07:27:14;1.63;;;1.52;;
24635;SDS011;12772;49.794;10.024;2023-08-06T07:31:16;2.28;;;1.23;;
24635;SDS011;12772;49.794;10.024;2023-08-06T07:35:18;1.08;;;1.02;;
24635;SDS011;12772;49.794;10.024;2023-08-06T07:39:20;1.30;;;1.20;;
24635;SDS011;12772;49.794;10.024;2023-08-06T07:43:24;1.00;;;0.90;;
24635;SDS011;12772;49.794;10.024;2023-08-06T07:47:26;3.05;;;1.00;;
24635;SDS011;12772;49.794;10.024;2023-08-06T07:51:28;3.90;;;1.05;;
24635;SDS011;12772;49.794;10.024;2023-08-06T07:55:30;1.60;;;1.20;;
24635;SDS011;12772;49.794;10.024;2023-08-06T07:59:32;1.10;;;1.00;;
24635;SDS011;12772;49.794;10.024;2023-08-06T08:03:34;1.20;;;1.10;;
24635;SDS011;12772;49.794;10.024;2023-08-06T08:07:36;1.02;;;0.80;;
24635;SDS011;12772;49.794;10.024;2023-08-06T08:11:38;1.42;;;0.68;;
24635;SDS011;12772;49.794;10.024;2023-08-06T08:15:40;1.05;;;0.95;;
24635;SDS011;12772;49.794;10.024;2023-08-06T08:19:43;0.75;;;0.75;;
24635;SDS011;12772;49.794;10.024;2023-08-06T08:23:45;0.90;;;0.90;;
24635;SDS011;12772;49.794;10.024;2023-08-06T08:27:50;0.77;;;0.77;;
24635;SDS011;12772;49.794;10.024;2023-08-06T08:31:52;1.88;;;0.90;;
24635;SDS011;12772;49.794;10.024;2023-08-06T08:35:54;0.90;;;0.90;;
24635;SDS011;12772;49.794;10.024;2023-08-06T08:39:56;1.05;;;0.95;;
24635;SDS011;12772;49.794;10.024;2023-08-06T08:43:58;1.33;;;1.20;;
24635;SDS011;12772;49.794;10.024;2023-08-06T08:48:00;1.13;;;1.02;;
24635;SDS011;12772;49.794;10.024;2023-08-06T08:52:03;1.35;;;1.00;;
24635;SDS011;12772;49.794;10.024;2023-08-06T08:56:07;1.17;;;0.88;;
24635;SDS011;12772;49.794;10.024;2023-08-06T09:00:10;0.77;;;0.77;;
24635;SDS011;12772;49.794;10.024;2023-08-06T09:04:13;1.73;;;0.73;;
24635;SDS011;12772;49.794;10.024;2023-08-06T09:08:17;0.73;;;0.73;;
24635;SDS011;12772;49.794;10.024;2023-08-06T09:12:20;1.33;;;0.70;;
24635;SDS011;12772;49.794;10.024;2023-08-06T09:16:26;0.60;;;0.60;;
24635;SDS011;12772;49.794;10.024;2023-08-06T09:20:28;1.13;;;0.70;;
24635;SDS011;12772;49.794;10.024;2023-08-06T09:24:30;0.70;;;0.68;;
24635;SDS011;12772;49.794;10.024;2023-08-06T09:28:39;0.60;;;0.60;;
24635;SDS011;12772;49.794;10.024;2023-08-06T09:32:47;0.50;;;0.50;;
24635;SDS011;12772;49.794;10.024;2023-08-06T09:36:52;0.50;;;0.50;;
24635;SDS011;12772;49.794;10.024;2023-08-06T09:40:55;1.23;;;0.57;;
24635;SDS011;12772;49.794;10.024;2023-08-06T09:45:06;0.77;;;0.70;;
24635;SDS011;12772;49.794;10.024;2023-08-06T09:49:08;0.50;;;0.50;;
24635;SDS011;12772;49.794;10.024;2023-08-06T09:53:10;0.57;;;0.57;;
24635;SDS011;12772;49.794;10.024;2023-08-06T09:57:14;0.75;;;0.75;;
24635;SDS011;12772;49.794;10.024;2023-08-06T10:01:17;0.45;;;0.45;;
24635;SDS011;12772;49.794;10.024;2023-08-06T10:05:20;0.60;;;0.60;;
24635;SDS011;12772;49.794;10.024;2023-08-06T10:09:23;0.50;;;0.50;;
24635;SDS011;12772;49.794;10.024;2023-08-06T10:13:25;0.50;;;0.50;;
24635;SDS011;12772;49.794;10.024;2023-08-06T10:17:28;0.68;;;0.68;;
24635;SDS011;12772;49.794;10.024;2023-08-06T10:21:32;0.60;;;0.55;;
24635;SDS011;12772;49.794;10.024;2023-08-06T10:25:35;1.00;;;0.60;;
24635;SDS011;12772;49.794;10.024;2023-08-06T10:29:41;0.50;;;0.50;;
24635;SDS011;12772;49.794;10.024;2023-08-06T10:33:47;1.15;;;0.60;;
24635;SDS011;12772;49.794;10.024;2023-08-06T10:37:49;1.10;;;0.80;;
24635;SDS011;12772;49.794;10.024;2023-08-06T10:41:51;0.60;;;0.60;;
24635;SDS011;12772;49.794;10.024;2023-08-06T10:45:53;0.57;;;0.57;;
24635;SDS011;12772;49.794;10.024;2023-08-06T10:49:57;0.47;;;0.47;;
24635;SDS011;12772;49.794;10.024;2023-08-06T10:53:59;0.70;;;0.70;;
24635;SDS011;12772;49.794;10.024;2023-08-06T10:58:01;0.63;;;0.63;;
24635;SDS011;12772;49.794;10.024;2023-08-06T11:02:04;0.60;;;0.60;;
24635;SDS011;12772;49.794;10.024;2023-08-06T11:06:07;1.25;;;0.40;;
24635;SDS011;12772;49.794;10.024;2023-08-06T11:10:10;0.70;;;0.70;;
24635;SDS011;12772;49.794;10.024;2023-08-06T11:14:17;0.60;;;0.60;;
24635;SDS011;12772;49.794;10.024;2023-08-06T11:18:19;0.80;;;0.80;;
24635;SDS011;12772;49.794;10.024;2023-08-06T11:22:21;1.52;;;0.93;;
24635;SDS011;12772;49.794;10.024;2023-08-06T11:26:24;1.27;;;0.60;;
24635;SDS011;12772;49.794;10.024;2023-08-06T11:30:28;0.65;;;0.65;;
24635;SDS011;12772;49.794;10.024;2023-08-06T11:34:30;0.65;;;0.57;;
24635;SDS011;12772;49.794;10.024;2023-08-06T11:38:32;0.60;;;0.60;;
24635;SDS011;12772;49.794;10.024;2023-08-06T11:42:34;0.60;;;0.60;;
24635;SDS011;12772;49.794;10.024;2023-08-06T11:46:56;0.60;;;0.60;;
24635;SDS011;12772;49.794;10.024;2023-08-06T11:51:00;0.50;;;0.50;;
24635;SDS011;12772;49.794;10.024;2023-08-06T11:55:02;0.80;;;0.50;;
24635;SDS011;12772;49.794;10.024;2023-08-06T11:59:08;0.40;;;0.40;;
24635;SDS011;12772;49.794;10.024;2023-08-06T12:03:10;0.52;;;0.30;;
24635;SDS011;12772;49.794;10.024;2023-08-06T12:07:12;0.50;;;0.50;;
24635;SDS011;12772;49.794;10.024;2023-08-06T12:11:14;0.68;;;0.40;;
24635;SDS011;12772;49.794;10.024;2023-08-06T12:15:17;0.50;;;0.50;;
24635;SDS011;12772;49.794;10.024;2023-08-06T12:19:19;0.43;;;0.43;;
24635;SDS011;12772;49.794;10.024;2023-08-06T12:23:21;0.60;;;0.60;;
24635;SDS011;12772;49.794;10.024;2023-08-06T12:27:23;0.40;;;0.40;;
24635;SDS011;12772;49.794;10.024;2023-08-06T12:31:25;0.40;;;0.40;;
24635;SDS011;12772;49.794;10.024;2023-08-06T12:35:27;0.50;;;0.50;;
24635;SDS011;12772;49.794;10.024;2023-08-06T12:39:29;0.50;;;0.50;;
24635;SDS011;12772;49.794;10.024;2023-08-06T12:43:31;0.40;;;0.40;;
24635;SDS011;12772;49.794;10.024;2023-08-06T12:47:33;0.90;;;0.50;;
24635;SDS011;12772;49.794;10.024;2023-08-06T12:51:35;0.45;;;0.45;;
24635;SDS011;12772;49.794;10.024;2023-08-06T12:55:37;0.43;;;0.43;;
24635;SDS011;12772;49.794;10.024;2023-08-06T12:59:41;0.65;;;0.50;;
24635;SDS011;12772;49.794;10.024;2023-08-06T13:03:43;1.17;;;0.50;;
24635;SDS011;12772;49.794;10.024;2023-08-06T13:07:45;0.63;;;0.50;;
24635;SDS011;12772;49.794;10.024;2023-08-06T13:11:47;0.52;;;0.52;;
24635;SDS011;12772;49.794;10.024;2023-08-06T13:15:50;0.50;;;0.50;;
24635;SDS011;12772;49.794;10.024;2023-08-06T13:19:52;0.40;;;0.40;;
24635;SDS011;12772;49.794;10.024;2023-08-06T13:23:54;0.40;;;0.40;;
24635;SDS011;12772;49.794;10.024;2023-08-06T13:27:56;0.47;;;0.47;;
24635;SDS011;12772;49.794;10.024;2023-08-06T13:31:58;0.68;;;0.68;;
24635;SDS011;12772;49.794;10.024;2023-08-06T13:36:00;0.80;;;0.80;;
24635;SDS011;12772;49.794;10.024;2023-08-06T13:40:02;1.27;;;0.70;;
24635;SDS011;12772;49.794;10.024;2023-08-06T13:44:05;5.93;;;1.00;;
24635;SDS011;12772;49.794;10.024;2023-08-06T13:48:07;2.22;;;0.80;;
24635;SDS011;12772;49.794;10.024;2023-08-06T13:52:10;0.50;;;0.50;;
24635;SDS011;12772;49.794;10.024;2023-08-06T13:56:12;0.60;;;0.60;;
24635;SDS011;12772;49.794;10.024;2023-08-06T14:00:15;0.75;;;0.47;;
24635;SDS011;12772;49.794;10.024;2023-08-06T14:04:17;0.60;;;0.60;;
24635;SDS011;12772;49.794;10.024;2023-08-06T14:08:20;0.50;;;0.50;;
24635;SDS011;12772;49.794;10.024;2023-08-06T14:12:23;1.50;;;0.60;;
24635;SDS011;12772;49.794;10.024;2023-08-06T14:16:25;0.60;;;0.60;;
24635;SDS011;12772;49.794;10.024;2023-08-06T14:20:28;0.60;;;0.60;;
24635;SDS011;12772;49.794;10.024;2023-08-06T14:24:30;0.63;;;0.63;;
24635;SDS011;12772;49.794;10.024;2023-08-06T14:28:32;0.75;;;0.75;;
24635;SDS011;12772;49.794;10.024;2023-08-06T14:32:34;0.57;;;0.57;;
24635;SDS011;12772;49.794;10.024;2023-08-06T14:36:36;0.80;;;0.80;;
24635;SDS011;12772;49.794;10.024;2023-08-06T14:40:38;1.60;;;0.65;;
24635;SDS011;12772;49.794;10.024;2023-08-06T14:44:41;0.70;;;0.70;;
24635;SDS011;12772;49.794;10.024;2023-08-06T14:48:43;1.25;;;0.90;;
24635;SDS011;12772;49.794;10.024;2023-08-06T14:52:45;0.73;;;0.70;;
24635;SDS011;12772;49.794;10.024;2023-08-06T14:56:47;0.80;;;0.70;;
24635;SDS011;12772;49.794;10.024;2023-08-06T15:00:49;1.17;;;0.93;;
24635;SDS011;12772;49.794;10.024;2023-08-06T15:04:51;0.70;;;0.70;;
24635;SDS011;12772;49.794;10.024;2023-08-06T15:08:53;1.20;;;0.80;;
24635;SDS011;12772;49.794;10.024;2023-08-06T15:12:58;2.05;;;1.00;;
24635;SDS011;12772;49.794;10.024;2023-08-06T15:17:01;0.90;;;0.90;;
24635;SDS011;12772;49.794;10.024;2023-08-06T15:21:03;0.52;;;0.52;;
24635;SDS011;12772;49.794;10.024;2023-08-06T15:25:05;1.33;;;0.70;;
24635;SDS011;12772;49.794;10.024;2023-08-06T15:29:08;1.45;;;0.68;;
24635;SDS011;12772;49.794;10.024;2023-08-06T15:33:10;0.75;;;0.75;;
24635;SDS011;12772;49.794;10.024;2023-08-06T15:37:12;2.55;;;0.70;;
24635;SDS011;12772;49.794;10.024;2023-08-06T15:41:14;0.90;;;0.80;;
24635;SDS011;12772;49.794;10.024;2023-08-06T15:45:16;1.10;;;0.80;;
24635;SDS011;12772;49.794;10.024;2023-08-06T15:49:18;2.85;;;0.70;;
24635;SDS011;12772;49.794;10.024;2023-08-06T15:53:20;0.70;;;0.70;;
24635;SDS011;12772;49.794;10.024;2023-08-06T15:57:22;0.68;;;0.65;;
24635;SDS011;12772;49.794;10.024;2023-08-06T16:01:24;0.77;;;0.77;;
24635;SDS011;12772;49.794;10.024;2023-08-06T16:05:26;0.68;;;0.68;;
24635;SDS011;12772;49.794;10.024;2023-08-06T16:09:28;1.42;;;0.55;;
24635;SDS011;12772;49.794;10.024;2023-08-06T16:13:30;0.70;;;0.70;;
24635;SDS011;12772;49.794;10.024;2023-08-06T16:17:32;0.63;;;0.60;;
24635;SDS011;12772;49.794;10.024;2023-08-06T16:21:35;0.60;;;0.60;;
24635;SDS011;12772;49.794;10.024;2023-08-06T16:25:37;1.55;;;0.98;;
24635;SDS011;12772;49.794;10.024;2023-08-06T16:29:40;0.55;;;0.55;;
24635;SDS011;12772;49.794;10.024;2023-08-06T16:33:42;0.73;;;0.70;;
24635;SDS011;12772;49.794;10.024;2023-08-06T16:37:45;0.52;;;0.52;;
24635;SDS011;12772;49.794;10.024;2023-08-06T16:41:48;1.65;;;0.80;;
24635;SDS011;12772;49.794;10.024;2023-08-06T16:45:53;0.40;;;0.40;;
24635;SDS011;12772;49.794;10.024;2023-08-06T16:49:55;0.68;;;0.68;;
24635;SDS011;12772;49.794;10.024;2023-08-06T16:53:57;1.45;;;0.60;;
24635;SDS011;12772;49.794;10.024;2023-08-06T16:57:59;0.65;;;0.65;;
24635;SDS011;12772;49.794;10.024;2023-08-06T17:02:01;0.60;;;0.60;;
24635;SDS011;12772;49.794;10.024;2023-08-06T17:06:03;0.50;;;0.50;;
24635;SDS011;12772;49.794;10.024;2023-08-06T17:10:06;0.40;;;0.40;;
24635;SDS011;12772;49.794;10.024;2023-08-06T17:14:08;0.40;;;0.40;;
24635;SDS011;12772;49.794;10.024;2023-08-06T17:18:11;0.40;;;0.40;;
24635;SDS011;12772;49.794;10.024;2023-08-06T17:22:16;1.88;;;0.73;;
24635;SDS011;12772;49.794;10.024;2023-08-06T17:26:18;0.43;;;0.43;;
24635;SDS011;12772;49.794;10.024;2023-08-06T17:30:20;0.40;;;0.40;;
24635;SDS011;12772;49.794;10.024;2023-08-06T17:34:22;0.50;;;0.50;;
24635;SDS011;12772;49.794;10.024;2023-08-06T17:38:24;0.80;;;0.70;;
24635;SDS011;12772;49.794;10.024;2023-08-06T17:42:26;2.38;;;0.60;;
24635;SDS011;12772;49.794;10.024;2023-08-06T17:46:28;2.53;;;0.65;;
24635;SDS011;12772;49.794;10.024;2023-08-06T17:50:30;0.50;;;0.50;;
24635;SDS011;12772;49.794;10.024;2023-08-06T17:54:32;0.85;;;0.70;;
24635;SDS011;12772;49.794;10.024;2023-08-06T17:58:34;0.50;;;0.50;;
24635;SDS011;12772;49.794;10.024;2023-08-06T18:02:36;0.60;;;0.60;;
24635;SDS011;12772;49.794;10.024;2023-08-06T18:06:39;0.45;;;0.45;;
24635;SDS011;12772;49.794;10.024;2023-08-06T18:10:41;0.50;;;0.50;;
24635;SDS011;12772;49.794;10.024;2023-08-06T18:14:43;0.40;;;0.40;;
24635;SDS011;12772;49.794;10.024;2023-08-06T18:18:45;1.45;;;0.80;;
24635;SDS011;12772;49.794;10.024;2023-08-06T18:22:48;0.80;;;0.80;;
24635;SDS011;12772;49.794;10.024;2023-08-06T18:26:50;1.08;;;0.60;;
24635;SDS011;12772;49.794;10.024;2023-08-06T18:30:52;0.65;;;0.60;;
24635;SDS011;12772;49.794;10.024;2023-08-06T18:34:54;0.43;;;0.43;;
24635;SDS011;12772;49.794;10.024;2023-08-06T18:38:56;1.08;;;0.63;;
24635;SDS011;12772;49.794;10.024;2023-08-06T18:42:58;0.43;;;0.43;;
24635;SDS011;12772;49.794;10.024;2023-08-06T18:47:00;0.50;;;0.50;;
24635;SDS011;12772;49.794;10.024;2023-08-06T18:51:02;0.75;;;0.70;;
24635;SDS011;12772;49.794;10.024;2023-08-06T18:55:04;0.70;;;0.70;;
24635;SDS011;12772;49.794;10.024;2023-08-06T18:59:06;0.60;;;0.60;;
24635;SDS011;12772;49.794;10.024;2023-08-06T19:03:09;0.57;;;0.52;;
24635;SDS011;12772;49.794;10.024;2023-08-06T19:07:11;3.30;;;0.70;;
24635;SDS011;12772;49.794;10.024;2023-08-06T19:11:13;0.70;;;0.70;;
24635;SDS011;12772;49.794;10.024;2023-08-06T19:15:15;0.73;;;0.73;;
24635;SDS011;12772;49.794;10.024;2023-08-06T19:19:17;1.70;;;0.60;;
24635;SDS011;12772;49.794;10.024;2023-08-06T19:23:19;0.75;;;0.70;;
24635;SDS011;12772;49.794;10.024;2023-08-06T19:27:23;0.82;;;0.82;;
24635;SDS011;12772;49.794;10.024;2023-08-06T19:31:25;0.70;;;0.70;;
24635;SDS011;12772;49.794;10.024;2023-08-06T19:35:27;0.60;;;0.60;;
24635;SDS011;12772;49.794;10.024;2023-08-06T19:39:29;0.77;;;0.73;;
24635;SDS011;12772;49.794;10.024;2023-08-06T19:43:31;0.60;;;0.60;;
24635;SDS011;12772;49.794;10.024;2023-08-06T19:47:33;0.90;;;0.73;;
24635;SDS011;12772;49.794;10.024;2023-08-06T19:51:35;0.70;;;0.60;;
24635;SDS011;12772;49.794;10.024;2023-08-06T19:55:40;1.45;;;0.70;;
24635;SDS011;12772;49.794;10.024;2023-08-06T19:59:42;0.60;;;0.60;;
24635;SDS011;12772;49.794;10.024;2023-08-06T20:03:45;0.60;;;0.60;;
24635;SDS011;12772;49.794;10.024;2023-08-06T20:07:47;0.98;;;0.98;;
24635;SDS011;12772;49.794;10.024;2023-08-06T20:11:49;0.57;;;0.57;;
24635;SDS011;12772;49.794;10.024;2023-08-06T20:16:04;0.90;;;0.90;;
24635;SDS011;12772;49.794;10.024;2023-08-06T20:20:09;0.60;;;0.60;;
24635;SDS011;12772;49.794;10.024;2023-08-06T20:24:11;0.98;;;0.80;;
24635;SDS011;12772;49.794;10.024;2023-08-06T20:28:13;0.63;;;0.60;;
24635;SDS011;12772;49.794;10.024;2023-08-06T20:32:15;2.20;;;0.93;;
24635;SDS011;12772;49.794;10.024;2023-08-06T20:36:17;0.88;;;0.88;;
24635;SDS011;12772;49.794;10.024;2023-08-06T20:40:19;0.98;;;0.70;;
24635;SDS011;12772;49.794;10.024;2023-08-06T20:44:21;0.60;;;0.60;;
24635;SDS011;12772;49.794;10.024;2023-08-06T20:48:23;1.33;;;0.60;;
24635;SDS011;12772;49.794;10.024;2023-08-06T20:52:26;0.60;;;0.60;;
24635;SDS011;12772;49.794;10.024;2023-08-06T20:56:28;1.65;;;0.50;;
24635;SDS011;12772;49.794;10.024;2023-08-06T21:00:30;0.75;;;0.75;;
24635;SDS011;12772;49.794;10.024;2023-08-06T21:04:32;0.60;;;0.60;;
24635;SDS011;12772;49.794;10.024;2023-08-06T21:08:34;1.17;;;0.70;;
24635;SDS011;12772;49.794;10.024;2023-08-06T21:12:37;0.95;;;0.73;;
24635;SDS011;12772;49.794;10.024;2023-08-06T21:16:39;3.80;;;0.75;;
24635;SDS011;12772;49.794;10.024;2023-08-06T21:20:41;0.50;;;0.50;;
24635;SDS011;12772;49.794;10.024;2023-08-06T21:24:43;0.70;;;0.70;;
24635;SDS011;12772;49.794;10.024;2023-08-06T21:28:45;0.60;;;0.60;;
24635;SDS011;12772;49.794;10.024;2023-08-06T21:32:47;1.23;;;0.50;;
24635;SDS011;12772;49.794;10.024;2023-08-06T21:36:49;1.13;;;0.45;;
24635;SDS011;12772;49.794;10.024;2023-08-06T21:40:51;0.60;;;0.60;;
24635;SDS011;12772;49.794;10.024;2023-08-06T21:44:55;0.90;;;0.70;;
24635;SDS011;12772;49.794;10.024;2023-08-06T21:48:57;0.40;;;0.40;;
24635;SDS011;12772;49.794;10.024;2023-08-06T21:52:59;0.60;;;0.60;;
24635;SDS011;12772;49.794;10.024;2023-08-06T21:57:02;0.60;;;0.60;;
24635;SDS011;12772;49.794;10.024;2023-08-06T22:01:05;0.60;;;0.60;;
24635;SDS011;12772;49.794;10.024;2023-08-06T22:05:08;1.73;;;0.60;;
24635;SDS011;12772;49.794;10.024;2023-08-06T22:09:10;0.32;;;0.32;;
24635;SDS011;12772;49.794;10.024;2023-08-06T22:13:12;0.70;;;0.68;;
24635;SDS011;12772;49.794;10.024;2023-08-06T22:17:14;0.40;;;0.40;;
24635;SDS011;12772;49.794;10.024;2023-08-06T22:21:16;0.45;;;0.45;;
24635;SDS011;12772;49.794;10.024;2023-08-06T22:25:19;1.13;;;0.70;;
24635;SDS011;12772;49.794;10.024;2023-08-06T22:29:21;0.80;;;0.50;;
24635;SDS011;12772;49.794;10.024;2023-08-06T22:33:23;0.40;;;0.40;;
24635;SDS011;12772;49.794;10.024;2023-08-06T22:37:28;0.55;;;0.55;;
24635;SDS011;12772;49.794;10.024;2023-08-06T22:41:31;0.40;;;0.40;;
24635;SDS011;12772;49.794;10.024;2023-08-06T22:45:32;0.50;;;0.50;;
24635;SDS011;12772;49.794;10.024;2023-08-06T22:49:34;0.50;;;0.50;;
24635;SDS011;12772;49.794;10.024;2023-08-06T22:53:38;0.60;;;0.60;;
24635;SDS011;12772;49.794;10.024;2023-08-06T22:57:40;0.50;;;0.50;;
24635;SDS011;12772;49.794;10.024;2023-08-06T23:01:42;0.50;;;0.50;;
24635;SDS011;12772;49.794;10.024;2023-08-06T23:05:44;0.43;;;0.43;;
24635;SDS011;12772;49.794;10.024;2023-08-06T23:09:46;0.55;;;0.55;;
24635;SDS011;12772;49.794;10.024;2023-08-06T23:13:48;0.75;;;0.52;;
24635;SDS011;12772;49.794;10.024;2023-08-06T23:17:50;0.40;;;0.40;;
24635;SDS011;12772;49.794;10.024;2023-08-06T23:21:52;1.00;;;0.63;;
24635;SDS011;12772;49.794;10.024;2023-08-06T23:25:55;0.50;;;0.50;;
24635;SDS011;12772;49.794;10.024;2023-08-06T23:29:57;0.63;;;0.63;;
24635;SDS011;12772;49.794;10.024;2023-08-06T23:33:59;0.60;;;0.60;;
24635;SDS011;12772;49.794;10.024;2023-08-06T23:38:01;1.05;;;0.80;;
24635;SDS011;12772;49.794;10.024;2023-08-06T23:42:03;0.60;;;0.60;;
24635;SDS011;12772;49.794;10.024;2023-08-06T23:46:05;1.65;;;0.60;;
24635;SDS011;12772;49.794;10.024;2023-08-06T23:50:08;1.45;;;0.70;;
24635;SDS011;12772;49.794;10.024;2023-08-06T23:54:10;0.80;;;0.73;;
24635;SDS011;12772;49.794;10.024;2023-08-06T23:58:12;0.80;;;0.73;;
